Time;durP1;ratioP1;P1;durP2;ratioP2;P2;SDS_P1;SDS_P2;PMS_P1;PMS_P2;Temp;Humidity;BMP_temperature;BMP_pressure;BME280_temperature;BME280_humidity;BME280_pressure;Samples;Min_cycle;Max_cycle;Signal;HPM_P1;HPM_P2
2022/09/24 00:01:26;;;;;;;7.90;7.17;;;12.90;83.90;;;;;;5063138;28;20472;-46
2022/09/24 00:03:59;;;;;;;8.90;8.00;;;13.00;83.50;;;;;;5066440;28;20473;-46
2022/09/24 00:06:27;;;;;;;8.20;7.40;;;13.00;83.30;;;;;;5043277;28;20469;-46
2022/09/24 00:08:55;;;;;;;9.80;8.13;;;13.00;83.30;;;;;;5066231;28;20490;-46
2022/09/24 00:11:25;;;;;;;9.90;8.70;;;12.90;83.50;;;;;;5063767;28;20555;-46
2022/09/24 00:13:52;;;;;;;9.03;8.13;;;12.90;83.70;;;;;;5063938;28;20442;-46
2022/09/24 00:16:21;;;;;;;8.77;7.93;;;12.90;83.60;;;;;;5064220;28;20969;-47
2022/09/24 00:18:47;;;;;;;8.27;7.40;;;12.90;83.60;;;;;;5064748;28;20870;-46
2022/09/24 00:21:20;;;;;;;9.30;8.40;;;12.90;83.50;;;;;;5064150;28;21667;-46
2022/09/24 00:23:56;;;;;;;8.83;7.50;;;12.90;83.40;;;;;;5064438;28;20976;-46
2022/09/24 00:29:11;;;;;;;9.23;8.33;;;12.80;83.50;;;;;;5057081;28;20883;-46
2022/09/24 00:31:38;;;;;;;10.20;8.60;;;12.90;83.70;;;;;;5065216;28;20489;-46
2022/09/24 00:34:05;;;;;;;10.07;7.50;;;12.90;83.50;;;;;;5047152;28;20892;-46
2022/09/24 00:36:32;;;;;;;9.83;8.77;;;12.80;83.70;;;;;;5064770;28;20468;-46
2022/09/24 00:38:59;;;;;;;7.27;6.53;;;12.70;84.00;;;;;;5059620;28;20535;-46
2022/09/24 00:41:29;;;;;;;7.63;6.80;;;12.70;83.90;;;;;;5066493;28;20507;-46
2022/09/24 00:43:57;;;;;;;10.40;6.37;;;12.60;83.90;;;;;;5062335;28;20496;-46
2022/09/24 00:46:31;;;;;;;7.73;6.93;;;12.50;84.00;;;;;;5065456;28;20485;-46
2022/09/24 00:49:03;;;;;;;7.60;6.87;;;12.60;84.00;;;;;;5062956;28;20518;-46
2022/09/24 00:51:32;;;;;;;7.43;6.73;;;12.60;83.60;;;;;;5062085;28;20531;-46
2022/09/24 00:54:04;;;;;;;7.77;6.93;;;12.60;83.20;;;;;;5045674;28;20934;-46
2022/09/24 00:56:35;;;;;;;9.80;7.23;;;12.60;83.20;;;;;;5064590;28;20458;-46
2022/09/24 00:59:03;;;;;;;8.03;7.23;;;12.70;83.00;;;;;;5044222;28;20815;-46
2022/09/24 01:01:30;;;;;;;8.10;7.40;;;12.60;83.10;;;;;;5040973;28;20508;-46
2022/09/24 01:03:59;;;;;;;10.77;7.30;;;12.60;83.70;;;;;;5059333;28;20530;-46
2022/09/24 01:06:26;;;;;;;10.40;7.43;;;12.60;83.60;;;;;;5036976;28;20504;-46
2022/09/24 01:08:55;;;;;;;7.90;7.10;;;12.70;83.30;;;;;;5063243;28;20461;-46
2022/09/24 01:11:47;;;;;;;8.03;7.33;;;12.70;83.20;;;;;;5065765;28;21002;-46
2022/09/24 01:14:50;;;;;;;8.30;7.40;;;12.70;83.20;;;;;;5063021;28;20519;-46
2022/09/24 01:17:26;;;;;;;12.17;7.93;;;12.70;83.20;;;;;;5036465;28;20516;-46
2022/09/24 01:19:55;;;;;;;8.60;7.53;;;12.60;83.40;;;;;;5062245;28;20465;-46
2022/09/24 01:22:37;;;;;;;11.23;8.50;;;12.60;83.40;;;;;;5058742;28;20482;-46
2022/09/24 01:25:12;;;;;;;8.30;7.10;;;12.60;83.70;;;;;;5063027;28;20540;-46
2022/09/24 01:28:03;;;;;;;9.13;8.23;;;12.50;83.80;;;;;;5058195;28;20558;-46
2022/09/24 01:30:33;;;;;;;9.60;7.53;;;12.40;84.10;;;;;;5046804;28;20485;-46
2022/09/24 01:33:03;;;;;;;8.40;7.60;;;12.40;84.60;;;;;;5060141;28;20534;-46
2022/09/24 01:35:37;;;;;;;9.83;8.17;;;12.40;84.50;;;;;;5041630;28;20996;-46
2022/09/24 01:38:10;;;;;;;9.00;8.07;;;12.50;84.10;;;;;;5058687;28;20848;-46
2022/09/24 01:40:39;;;;;;;8.77;7.87;;;12.50;83.90;;;;;;5047800;28;20501;-46
2022/09/24 01:43:08;;;;;;;9.53;8.53;;;12.50;83.80;;;;;;5038829;28;20458;-46
2022/09/24 01:45:37;;;;;;;10.73;8.00;;;12.50;83.80;;;;;;5055719;28;20450;-46
2022/09/24 01:48:04;;;;;;;9.60;8.00;;;12.50;83.70;;;;;;5043728;28;20497;-46
2022/09/24 01:50:39;;;;;;;9.27;7.63;;;12.40;83.80;;;;;;5058997;28;20517;-46
2022/09/24 01:53:28;;;;;;;12.53;7.87;;;12.30;84.40;;;;;;5056997;28;20489;-46
2022/09/24 01:56:06;;;;;;;10.73;8.30;;;12.30;84.00;;;;;;5062314;28;20469;-46
2022/09/24 01:58:39;;;;;;;9.23;8.17;;;12.30;83.80;;;;;;5061319;28;20527;-46
2022/09/24 02:01:09;;;;;;;10.03;8.07;;;12.20;84.00;;;;;;5059891;28;20466;-46
2022/09/24 02:03:42;;;;;;;8.60;7.70;;;12.10;84.10;;;;;;5062827;28;20496;-46
2022/09/24 02:06:24;;;;;;;8.50;7.37;;;12.00;84.60;;;;;;5058162;28;21098;-46
2022/09/24 02:08:51;;;;;;;8.20;7.50;;;12.10;83.90;;;;;;5043243;28;20499;-46
2022/09/24 02:11:21;;;;;;;9.67;7.40;;;12.10;83.40;;;;;;5052938;28;20530;-46
2022/09/24 02:14:03;;;;;;;7.37;6.70;;;12.00;84.00;;;;;;5060191;28;20516;-46
2022/09/24 02:16:36;;;;;;;8.43;7.70;;;12.00;83.90;;;;;;5059434;28;21057;-46
2022/09/24 02:19:07;;;;;;;7.97;7.17;;;12.00;83.90;;;;;;5062139;28;20507;-46
2022/09/24 02:21:36;;;;;;;7.70;7.07;;;12.00;83.60;;;;;;5058945;28;20842;-46
2022/09/24 02:24:09;;;;;;;8.43;7.67;;;12.00;83.20;;;;;;5063710;28;20465;-46
2022/09/24 02:26:36;;;;;;;7.80;7.10;;;12.00;83.20;;;;;;5063791;28;20457;-46
2022/09/24 02:29:04;;;;;;;11.27;8.20;;;11.80;83.70;;;;;;5064465;28;20460;-46
2022/09/24 02:31:37;;;;;;;9.00;6.93;;;11.90;83.80;;;;;;5063309;28;20555;-46
2022/09/24 02:34:22;;;;;;;9.97;6.70;;;11.90;83.60;;;;;;5064668;28;20488;-46
2022/09/24 02:36:58;;;;;;;9.20;8.30;;;11.90;83.20;;;;;;5063672;28;20462;-46
2022/09/24 02:39:25;;;;;;;9.60;7.40;;;11.90;83.10;;;;;;5060956;28;20881;-46
2022/09/24 02:41:53;;;;;;;8.60;7.33;;;11.90;83.10;;;;;;5065175;28;20520;-46
2022/09/24 02:44:21;;;;;;;8.10;7.40;;;11.90;83.20;;;;;;5065991;28;20493;-46
2022/09/24 02:46:49;;;;;;;10.03;7.73;;;11.80;83.00;;;;;;5048398;28;20560;-46
2022/09/24 02:49:17;;;;;;;8.27;7.47;;;11.80;83.30;;;;;;5067262;28;20942;-46
2022/09/24 02:51:43;;;;;;;10.77;7.37;;;11.80;83.20;;;;;;5065104;28;20497;-46
2022/09/24 02:54:10;;;;;;;7.70;6.93;;;11.80;83.40;;;;;;5051786;28;20484;-46
2022/09/24 02:56:37;;;;;;;7.47;6.73;;;11.70;83.50;;;;;;5049892;28;20461;-45
2022/09/24 02:59:04;;;;;;;6.57;6.07;;;11.70;83.30;;;;;;5065520;28;20461;-45
2022/09/24 03:01:32;;;;;;;8.90;6.43;;;11.70;83.30;;;;;;5051675;28;20588;-45
2022/09/24 03:04:00;;;;;;;6.80;6.23;;;11.70;83.00;;;;;;5055138;28;20515;-45
2022/09/24 03:06:27;;;;;;;6.63;5.93;;;11.70;82.80;;;;;;5067943;28;20521;-45
2022/09/24 03:08:54;;;;;;;8.50;7.60;;;11.60;83.00;;;;;;5069741;28;20804;-45
2022/09/24 03:11:21;;;;;;;9.17;7.63;;;11.40;83.60;;;;;;5070687;28;20489;-45
2022/09/24 03:13:49;;;;;;;7.00;6.30;;;11.30;84.10;;;;;;5071350;28;20458;-45
2022/09/24 03:16:17;;;;;;;8.10;7.30;;;11.30;84.50;;;;;;5050103;28;20517;-45
2022/09/24 03:18:46;;;;;;;9.70;7.23;;;11.30;84.30;;;;;;5070620;28;20461;-45
2022/09/24 03:21:15;;;;;;;7.17;6.47;;;11.20;84.60;;;;;;5065771;28;20462;-45
2022/09/24 03:23:42;;;;;;;8.90;7.23;;;11.30;84.40;;;;;;5068622;28;20512;-45
2022/09/24 03:26:09;;;;;;;7.37;6.70;;;11.30;84.20;;;;;;5049841;28;20461;-45
2022/09/24 03:28:35;;;;;;;10.70;7.03;;;11.20;84.00;;;;;;5053048;28;20465;-45
2022/09/24 03:31:02;;;;;;;8.60;6.57;;;11.10;84.50;;;;;;5066209;28;20525;-45
2022/09/24 03:33:33;;;;;;;10.80;7.00;;;11.10;84.50;;;;;;5038343;28;20456;-45
2022/09/24 03:36:03;;;;;;;7.67;7.07;;;11.20;84.40;;;;;;5064021;28;20470;-45
2022/09/24 03:38:31;;;;;;;7.33;6.63;;;11.20;84.00;;;;;;5066656;28;20493;-45
2022/09/24 03:40:59;;;;;;;8.70;7.33;;;11.20;83.70;;;;;;5070145;28;20458;-46
2022/09/24 03:43:26;;;;;;;7.13;6.47;;;11.20;83.90;;;;;;5052610;28;21005;-45
2022/09/24 03:45:53;;;;;;;7.00;6.30;;;11.20;84.20;;;;;;5050948;28;20458;-45
2022/09/24 03:48:21;;;;;;;7.47;6.63;;;11.20;84.10;;;;;;5070984;28;20471;-45
2022/09/24 03:50:48;;;;;;;7.30;6.60;;;11.20;84.30;;;;;;5066518;28;20477;-45
2022/09/24 03:53:16;;;;;;;9.77;7.87;;;11.20;84.20;;;;;;5069809;28;20446;-45
2022/09/24 03:55:55;;;;;;;8.37;7.57;;;11.30;84.20;;;;;;5055269;28;20900;-45
2022/09/24 03:58:22;;;;;;;7.77;6.97;;;11.30;84.00;;;;;;5068647;28;21047;-45
2022/09/24 04:00:53;;;;;;;8.10;7.40;;;11.20;84.40;;;;;;5043387;28;20925;-45
2022/09/24 04:03:20;;;;;;;6.77;6.20;;;11.30;84.20;;;;;;5068367;28;20503;-45
2022/09/24 04:05:50;;;;;;;6.67;6.07;;;11.30;84.20;;;;;;5045288;28;20950;-45
2022/09/24 04:08:18;;;;;;;7.07;6.47;;;11.40;83.90;;;;;;5070642;28;20456;-45
2022/09/24 04:10:45;;;;;;;7.10;6.40;;;11.40;83.80;;;;;;5049200;28;20850;-45
2022/09/24 04:13:12;;;;;;;6.10;5.70;;;11.30;83.90;;;;;;5069156;28;20454;-45
2022/09/24 04:15:39;;;;;;;7.03;6.27;;;11.30;83.70;;;;;;5066538;28;20531;-45
2022/09/24 04:18:06;;;;;;;7.40;6.33;;;11.30;83.70;;;;;;5050573;28;20544;-45
2022/09/24 04:20:33;;;;;;;10.00;6.20;;;11.30;83.70;;;;;;5032545;28;20549;-45
2022/09/24 04:23:00;;;;;;;7.80;7.00;;;11.10;83.90;;;;;;5067159;28;20467;-45
2022/09/24 04:25:30;;;;;;;6.33;5.73;;;11.00;84.60;;;;;;5027296;28;20494;-45
2022/09/24 04:27:59;;;;;;;6.53;5.50;;;11.10;84.00;;;;;;5050795;28;20932;-45
2022/09/24 04:30:27;;;;;;;9.17;8.17;;;11.10;83.90;;;;;;5024747;28;21258;-45
2022/09/24 04:32:53;;;;;;;12.87;10.63;;;11.00;83.70;;;;;;5031893;28;21032;-45
2022/09/24 04:35:23;;;;;;;14.90;9.33;;;10.80;84.10;;;;;;5050582;28;21132;-45
2022/09/24 04:37:49;;;;;;;12.63;9.40;;;10.90;84.30;;;;;;5048899;28;20501;-45
2022/09/24 04:40:16;;;;;;;8.60;7.47;;;10.90;84.20;;;;;;5051168;28;20486;-45
2022/09/24 04:42:45;;;;;;;6.73;6.10;;;11.00;84.00;;;;;;5028603;28;20462;-45
2022/09/24 04:45:18;;;;;;;6.80;6.10;;;11.00;83.90;;;;;;5028947;28;20506;-45
2022/09/24 04:47:54;;;;;;;7.30;5.70;;;11.10;83.80;;;;;;5048414;28;20491;-45
2022/09/24 04:50:22;;;;;;;7.33;6.10;;;11.00;83.80;;;;;;5025393;28;20505;-45
2022/09/24 04:52:48;;;;;;;6.53;5.93;;;11.00;83.70;;;;;;5048259;28;21116;-45
2022/09/24 04:55:15;;;;;;;6.20;5.60;;;10.80;84.00;;;;;;5024279;28;20535;-45
2022/09/24 04:57:43;;;;;;;9.90;6.43;;;10.80;84.50;;;;;;5049212;28;20502;-45
2022/09/24 05:00:14;;;;;;;7.13;6.20;;;10.80;84.40;;;;;;5049028;28;20493;-45
2022/09/24 05:02:42;;;;;;;6.63;6.00;;;10.80;84.20;;;;;;5050081;28;20493;-45
2022/09/24 05:05:10;;;;;;;8.57;7.60;;;10.70;84.50;;;;;;5043750;28;20532;-45
2022/09/24 05:07:37;;;;;;;7.50;6.80;;;10.70;84.40;;;;;;5041449;28;20509;-45
2022/09/24 05:10:05;;;;;;;8.57;7.77;;;10.70;84.60;;;;;;5027937;28;20498;-45
2022/09/24 05:12:34;;;;;;;7.77;7.00;;;10.80;84.50;;;;;;5049176;28;20480;-45
2022/09/24 05:15:01;;;;;;;7.70;6.73;;;10.80;84.30;;;;;;5050116;28;20837;-45
2022/09/24 05:17:27;;;;;;;7.10;6.40;;;10.90;84.00;;;;;;5011720;28;20497;-45
2022/09/24 05:19:56;;;;;;;7.10;6.43;;;10.90;83.60;;;;;;5049277;28;20964;-45
2022/09/24 05:22:24;;;;;;;8.10;6.10;;;10.90;83.90;;;;;;5048794;28;20467;-45
2022/09/24 05:24:51;;;;;;;7.73;6.30;;;10.90;84.10;;;;;;5049593;28;20494;-45
2022/09/24 05:27:18;;;;;;;7.80;7.10;;;10.90;84.20;;;;;;5030068;28;20639;-45
2022/09/24 05:29:45;;;;;;;7.50;6.70;;;10.90;84.50;;;;;;5050678;28;20466;-45
2022/09/24 05:32:14;;;;;;;8.43;6.93;;;10.90;84.40;;;;;;5042574;28;21094;-45
2022/09/24 05:34:45;;;;;;;7.50;6.80;;;10.90;84.40;;;;;;5031215;28;20581;-45
2022/09/24 05:37:13;;;;;;;8.70;6.80;;;11.00;84.30;;;;;;5047091;28;20492;-45
2022/09/24 05:39:39;;;;;;;8.33;7.53;;;11.00;84.10;;;;;;5047650;28;20942;-45
2022/09/24 05:42:15;;;;;;;7.63;6.93;;;11.00;84.30;;;;;;5048800;28;20489;-45
2022/09/24 05:44:42;;;;;;;8.10;7.30;;;10.90;84.70;;;;;;5048789;28;20989;-45
2022/09/24 05:47:12;;;;;;;7.10;6.37;;;10.90;84.60;;;;;;5048245;28;20459;-45
2022/09/24 05:49:39;;;;;;;9.07;7.17;;;10.70;85.00;;;;;;5046166;28;20500;-45
2022/09/24 05:52:05;;;;;;;9.40;7.37;;;10.80;85.50;;;;;;5047475;28;20485;-45
2022/09/24 05:54:32;;;;;;;8.57;7.77;;;10.90;85.30;;;;;;5048630;28;20886;-45
2022/09/24 05:56:59;;;;;;;6.97;6.27;;;10.90;84.90;;;;;;5044831;28;20870;-45
2022/09/24 05:59:25;;;;;;;8.20;7.10;;;10.90;85.00;;;;;;5047219;28;20939;-45
2022/09/24 06:01:53;;;;;;;6.33;5.73;;;11.00;84.80;;;;;;5017180;28;20455;-45
2022/09/24 06:04:19;;;;;;;11.13;6.87;;;11.10;84.50;;;;;;5031586;28;20792;-45
2022/09/24 06:06:46;;;;;;;7.37;6.77;;;11.00;84.80;;;;;;5030917;28;20516;-45
2022/09/24 06:09:13;;;;;;;7.17;6.50;;;11.10;85.00;;;;;;5050694;28;21041;-45
2022/09/24 06:11:40;;;;;;;6.50;5.70;;;11.10;85.10;;;;;;5053427;28;20539;-45
2022/09/24 06:14:08;;;;;;;7.17;6.23;;;11.10;85.00;;;;;;5048557;28;20462;-45
2022/09/24 06:16:35;;;;;;;7.23;6.50;;;11.10;85.10;;;;;;5051867;28;20504;-45
2022/09/24 06:19:02;;;;;;;7.37;6.67;;;11.10;85.30;;;;;;5050664;28;20799;-45
2022/09/24 06:21:29;;;;;;;8.27;7.40;;;11.20;85.20;;;;;;5028226;28;20463;-45
2022/09/24 06:23:56;;;;;;;10.07;8.07;;;11.30;85.20;;;;;;5046511;28;20462;-45
2022/09/24 06:26:25;;;;;;;10.53;8.10;;;11.20;85.40;;;;;;5030401;28;20667;-45
2022/09/24 06:28:51;;;;;;;8.70;7.90;;;11.10;85.60;;;;;;5047888;28;20470;-45
2022/09/24 06:31:18;;;;;;;8.90;8.10;;;11.20;86.20;;;;;;5030129;28;20496;-45
2022/09/24 06:33:45;;;;;;;11.53;8.63;;;11.30;86.20;;;;;;5047132;28;20490;-45
2022/09/24 06:36:12;;;;;;;8.97;8.07;;;11.40;86.30;;;;;;5049839;28;20553;-45
2022/09/24 06:38:39;;;;;;;9.67;8.67;;;11.50;86.20;;;;;;5013088;28;20956;-45
2022/09/24 06:41:06;;;;;;;9.10;8.20;;;11.50;86.30;;;;;;5024142;28;20479;-45
2022/09/24 06:43:33;;;;;;;8.97;8.17;;;11.50;86.50;;;;;;5034858;28;20838;-45
2022/09/24 06:46:02;;;;;;;10.00;8.70;;;11.50;86.00;;;;;;5042006;28;20498;-45
2022/09/24 06:48:29;;;;;;;10.20;8.07;;;11.60;86.00;;;;;;5045090;28;20542;-45
2022/09/24 06:50:56;;;;;;;8.60;7.73;;;11.60;86.10;;;;;;5035651;28;20462;-45
2022/09/24 06:53:23;;;;;;;7.70;6.30;;;11.60;86.10;;;;;;5025045;28;20490;-45
2022/09/24 06:55:50;;;;;;;7.43;6.63;;;11.60;85.90;;;;;;5024508;28;20495;-45
2022/09/24 06:58:19;;;;;;;8.63;6.10;;;11.60;85.80;;;;;;5021406;28;20600;-45
2022/09/24 07:00:56;;;;;;;6.03;5.53;;;11.70;85.60;;;;;;5045032;28;20454;-45
2022/09/24 07:03:24;;;;;;;6.40;5.57;;;11.70;85.10;;;;;;5041388;28;20560;-46
2022/09/24 07:05:51;;;;;;;6.37;5.77;;;11.70;84.90;;;;;;5042970;28;20479;-45
2022/09/24 07:08:18;;;;;;;5.60;5.10;;;11.80;84.70;;;;;;5036523;28;20466;-45
2022/09/24 07:10:47;;;;;;;7.30;6.60;;;11.80;84.70;;;;;;5019274;28;20458;-45
2022/09/24 07:13:15;;;;;;;5.67;5.17;;;11.80;84.60;;;;;;5040850;28;20489;-45
2022/09/24 07:15:43;;;;;;;9.87;6.50;;;11.80;84.60;;;;;;5045315;28;20496;-45
2022/09/24 07:18:10;;;;;;;6.03;5.33;;;11.90;84.50;;;;;;5047835;28;20488;-45
2022/09/24 07:20:37;;;;;;;7.20;5.90;;;12.00;84.30;;;;;;5041155;28;20890;-45
2022/09/24 07:23:05;;;;;;;5.93;4.83;;;12.00;83.90;;;;;;5031803;28;20946;-45
2022/09/24 07:25:32;;;;;;;6.07;5.47;;;12.00;83.60;;;;;;5025314;28;20462;-46
2022/09/24 07:28:02;;;;;;;5.53;4.90;;;12.00;83.80;;;;;;5043925;28;20731;-45
2022/09/24 07:30:28;;;;;;;6.20;5.60;;;12.10;83.90;;;;;;5043222;28;20552;-45
2022/09/24 07:32:55;;;;;;;7.67;5.60;;;12.10;83.70;;;;;;5040247;28;20502;-45
2022/09/24 07:35:22;;;;;;;6.87;6.20;;;12.20;83.60;;;;;;5019637;28;21032;-45
2022/09/24 07:38:06;;;;;;;10.50;5.60;;;12.20;83.50;;;;;;5037680;28;21612;-45
2022/09/24 07:40:33;;;;;;;7.87;5.90;;;12.30;83.20;;;;;;5048929;28;20971;-45
2022/09/24 07:43:00;;;;;;;6.30;5.70;;;12.40;83.10;;;;;;5045295;28;20525;-45
2022/09/24 07:45:28;;;;;;;6.40;5.80;;;12.40;83.00;;;;;;5028703;28;20899;-45
2022/09/24 07:48:01;;;;;;;6.60;6.10;;;12.40;83.10;;;;;;5025857;28;20462;-45
2022/09/24 07:50:30;;;;;;;7.00;5.57;;;12.30;83.20;;;;;;5045784;28;20474;-45
2022/09/24 07:52:57;;;;;;;6.30;5.53;;;12.30;83.50;;;;;;5050003;28;20486;-45
2022/09/24 07:55:25;;;;;;;9.40;7.70;;;12.40;83.30;;;;;;5049656;28;20509;-45
2022/09/24 07:57:54;;;;;;;7.33;6.50;;;12.40;83.20;;;;;;5048678;28;20554;-45
2022/09/24 08:00:22;;;;;;;8.33;6.57;;;12.40;83.00;;;;;;5022384;28;20459;-45
2022/09/24 08:02:50;;;;;;;8.10;7.03;;;12.50;82.80;;;;;;5018140;28;20463;-45
2022/09/24 08:05:17;;;;;;;7.67;6.70;;;12.50;82.70;;;;;;5041778;28;20471;-45
2022/09/24 08:07:54;;;;;;;7.20;6.50;;;12.50;82.60;;;;;;5038674;28;20467;-45
2022/09/24 08:10:22;;;;;;;9.17;8.27;;;12.50;82.50;;;;;;5023877;28;20466;-45
2022/09/24 08:12:49;;;;;;;7.83;7.13;;;12.60;82.50;;;;;;5046657;28;20603;-45
2022/09/24 08:15:16;;;;;;;8.37;7.60;;;12.70;82.30;;;;;;5030140;28;20494;-45
2022/09/24 08:17:42;;;;;;;7.70;7.10;;;12.60;82.30;;;;;;5023321;28;20817;-45
2022/09/24 08:20:11;;;;;;;8.73;7.93;;;12.70;82.20;;;;;;5044258;28;20473;-45
2022/09/24 08:22:37;;;;;;;10.30;7.63;;;12.80;82.20;;;;;;5028053;28;20575;-45
2022/09/24 08:25:05;;;;;;;8.10;7.30;;;12.90;82.20;;;;;;5048675;28;20502;-45
2022/09/24 08:27:35;;;;;;;9.60;8.80;;;12.90;82.10;;;;;;5030714;28;20473;-47
2022/09/24 08:30:05;;;;;;;14.73;9.97;;;13.00;81.80;;;;;;5047039;28;20458;-45
2022/09/24 08:32:32;;;;;;;14.10;9.67;;;13.00;81.90;;;;;;5048619;28;20490;-45
2022/09/24 08:34:58;;;;;;;10.57;9.53;;;13.10;81.80;;;;;;5035115;28;20598;-45
2022/09/24 08:37:27;;;;;;;12.77;10.40;;;13.20;81.70;;;;;;5026054;28;20529;-45
2022/09/24 08:39:54;;;;;;;11.90;10.70;;;13.30;81.50;;;;;;5041652;28;20494;-45
2022/09/24 08:42:30;;;;;;;15.90;11.60;;;13.30;81.40;;;;;;5048344;28;20504;-45
2022/09/24 08:47:58;;;;;;;12.60;10.70;;;13.40;81.30;;;;;;5050864;28;20470;-45
2022/09/24 08:50:27;;;;;;;13.90;11.60;;;13.40;81.30;;;;;;5040887;28;20463;-45
2022/09/24 08:52:54;;;;;;;13.27;10.80;;;13.50;81.00;;;;;;5048784;28;20536;-45
2022/09/24 08:55:32;;;;;;;14.27;12.40;;;13.60;80.90;;;;;;5017822;28;20487;-45
2022/09/24 08:58:17;;;;;;;12.67;11.37;;;13.60;81.10;;;;;;5037959;28;20524;-45
2022/09/24 09:01:14;;;;;;;14.63;12.50;;;13.60;81.10;;;;;;5017760;28;20550;-45
2022/09/24 09:04:14;;;;;;;12.83;11.03;;;13.70;80.90;;;;;;5049811;28;20466;-45
2022/09/24 09:07:26;;;;;;;15.13;12.97;;;13.80;80.60;;;;;;5015305;28;20463;-45
2022/09/24 09:10:09;;;;;;;13.10;11.87;;;13.90;80.30;;;;;;5041587;28;20478;-45
2022/09/24 09:12:47;;;;;;;13.63;12.20;;;13.90;80.20;;;;;;5041288;28;20539;-45
2022/09/24 09:15:18;;;;;;;14.50;13.00;;;14.00;80.00;;;;;;5022281;28;20462;-45
2022/09/24 09:17:58;;;;;;;15.50;13.40;;;14.10;79.80;;;;;;5030405;28;21021;-45
2022/09/24 09:20:34;;;;;;;14.10;12.60;;;14.20;79.70;;;;;;5044453;28;20516;-45
2022/09/24 09:23:29;;;;;;;14.07;12.63;;;14.30;79.50;;;;;;5037854;28;20477;-45
2022/09/24 09:25:58;;;;;;;14.30;12.50;;;14.30;79.30;;;;;;5041128;28;20878;-45
2022/09/24 09:28:26;;;;;;;17.30;13.70;;;14.40;79.30;;;;;;5043104;28;20462;-45
2022/09/24 09:30:57;;;;;;;14.50;13.00;;;14.50;79.20;;;;;;5043930;28;20466;-45
2022/09/24 09:33:34;;;;;;;15.23;12.43;;;14.60;79.10;;;;;;5040363;28;20498;-45
2022/09/24 09:36:30;;;;;;;13.83;12.53;;;14.60;78.90;;;;;;5041763;28;20893;-45
2022/09/24 09:39:32;;;;;;;17.03;13.07;;;14.70;78.80;;;;;;4986562;28;21615;-46
2022/09/24 09:42:12;;;;;;;14.40;13.10;;;14.80;78.70;;;;;;4969562;28;20462;-45
2022/09/24 09:44:41;;;;;;;17.37;14.67;;;14.80;78.40;;;;;;5041745;28;20897;-45
2022/09/24 09:47:15;;;;;;;13.87;12.50;;;14.80;78.10;;;;;;5047589;28;20466;-45
2022/09/24 09:49:44;;;;;;;13.10;11.80;;;14.90;78.00;;;;;;5047009;28;20458;-45
2022/09/24 09:52:16;;;;;;;14.43;12.83;;;14.90;78.00;;;;;;5032638;28;20555;-45
2022/09/24 09:54:44;;;;;;;15.17;13.57;;;15.00;77.90;;;;;;5047666;28;20948;-45
2022/09/24 09:57:17;;;;;;;14.80;13.30;;;15.00;77.70;;;;;;5046129;28;20479;-46
2022/09/24 09:59:49;;;;;;;14.00;12.53;;;15.10;77.60;;;;;;5046051;28;20463;-45
2022/09/24 10:02:26;;;;;;;13.60;12.30;;;15.10;77.30;;;;;;5044038;28;20501;-45
2022/09/24 10:05:04;;;;;;;13.60;11.80;;;15.10;77.20;;;;;;5047047;28;20473;-45
2022/09/24 10:07:42;;;;;;;13.93;12.63;;;15.20;77.20;;;;;;5030295;28;20500;-45
2022/09/24 10:10:23;;;;;;;13.90;12.50;;;15.20;77.00;;;;;;5048604;28;20508;-45
2022/09/24 10:13:07;;;;;;;13.90;12.50;;;15.20;76.70;;;;;;5048825;28;20523;-45
2022/09/24 10:15:38;;;;;;;13.37;11.90;;;15.30;76.70;;;;;;5043847;28;20537;-45
2022/09/24 10:18:13;;;;;;;15.60;11.73;;;15.30;76.70;;;;;;5049720;28;20466;-45
2022/09/24 10:20:47;;;;;;;13.23;11.90;;;15.30;76.90;;;;;;5044409;28;20466;-45
2022/09/24 10:23:21;;;;;;;13.27;11.87;;;15.40;76.80;;;;;;5048744;28;20508;-46
2022/09/24 10:25:58;;;;;;;14.03;12.27;;;15.40;76.60;;;;;;5043023;28;20446;-45
2022/09/24 10:31:15;;;;;;;14.07;11.33;;;15.40;76.00;;;;;;5049169;28;20486;-45
2022/09/24 10:33:46;;;;;;;13.40;12.10;;;15.50;75.60;;;;;;5048322;28;20489;-45
2022/09/24 10:36:21;;;;;;;14.00;12.13;;;15.50;75.50;;;;;;5030357;28;20502;-45
2022/09/24 10:39:01;;;;;;;13.73;11.60;;;15.50;75.50;;;;;;5046746;28;20462;-45
2022/09/24 10:41:30;;;;;;;14.30;12.67;;;15.50;75.60;;;;;;5043079;28;20979;-46
2022/09/24 10:44:01;;;;;;;14.97;13.47;;;15.60;75.70;;;;;;5045974;28;20466;-45
2022/09/24 10:46:42;;;;;;;20.33;13.83;;;15.60;75.70;;;;;;5022485;28;20993;-45
2022/09/24 10:49:40;;;;;;;14.93;13.13;;;15.60;75.90;;;;;;5029011;28;20466;-45
2022/09/24 10:52:36;;;;;;;17.07;14.10;;;15.80;75.70;;;;;;5051296;28;20453;-46
2022/09/24 10:55:21;;;;;;;13.83;12.43;;;15.90;75.20;;;;;;5027647;28;20501;-46
2022/09/24 10:58:01;;;;;;;15.87;13.43;;;15.90;75.00;;;;;;5052039;28;20932;-46
2022/09/24 11:00:47;;;;;;;14.70;12.90;;;16.00;74.90;;;;;;5032026;28;20446;-46
2022/09/24 11:03:47;;;;;;;14.70;13.20;;;16.00;74.70;;;;;;5050221;28;20470;-46
2022/09/24 11:06:51;;;;;;;14.53;12.17;;;16.00;74.80;;;;;;5045309;28;20462;-45
2022/09/24 11:09:24;;;;;;;13.43;11.90;;;16.00;74.60;;;;;;5045864;28;20537;-46
2022/09/24 11:12:14;;;;;;;11.43;10.23;;;16.00;74.10;;;;;;5051459;28;20467;-45
2022/09/24 11:15:01;;;;;;;11.57;10.47;;;16.00;73.60;;;;;;5050317;28;20964;-45
2022/09/24 11:17:33;;;;;;;12.07;10.83;;;16.10;73.00;;;;;;5048940;28;20489;-45
2022/09/24 11:20:06;;;;;;;10.07;8.97;;;16.10;71.80;;;;;;5040902;28;20515;-46
2022/09/24 11:22:59;;;;;;;12.10;10.10;;;16.10;71.70;;;;;;5031468;28;20553;-45
2022/09/24 11:26:12;;;;;;;14.80;12.30;;;16.20;71.80;;;;;;5045597;28;20502;-46
2022/09/24 11:28:50;;;;;;;12.53;11.23;;;16.30;72.10;;;;;;4984746;28;20461;-46
2022/09/24 11:31:29;;;;;;;18.40;13.90;;;16.30;72.70;;;;;;5024330;28;20468;-45
2022/09/24 11:34:04;;;;;;;17.93;12.17;;;16.30;73.40;;;;;;5028965;28;20569;-45
2022/09/24 11:36:59;;;;;;;16.33;12.07;;;16.40;73.50;;;;;;5032979;28;20490;-45
2022/09/24 11:39:34;;;;;;;11.77;10.53;;;16.40;73.70;;;;;;5051236;28;20477;-46
2022/09/24 11:42:20;;;;;;;13.10;11.27;;;16.40;73.50;;;;;;5030851;28;20458;-46
2022/09/24 11:45:05;;;;;;;10.20;9.20;;;16.50;73.00;;;;;;5045197;28;20498;-46
2022/09/24 11:47:49;;;;;;;8.90;7.90;;;16.40;71.30;;;;;;5047238;28;20583;-46
2022/09/24 11:50:34;;;;;;;9.40;8.50;;;16.50;71.40;;;;;;5031597;28;20462;-46
2022/09/24 11:53:21;;;;;;;9.37;8.33;;;16.50;71.30;;;;;;5051265;28;20489;-46
2022/09/24 11:56:00;;;;;;;9.20;7.40;;;16.50;71.10;;;;;;5039279;28;20496;-45
2022/09/24 11:58:34;;;;;;;8.60;7.67;;;16.50;71.10;;;;;;5051407;28;20904;-46
2022/09/24 12:01:09;;;;;;;9.47;8.37;;;16.60;71.30;;;;;;5043688;28;21089;-46
2022/09/24 12:03:44;;;;;;;9.00;8.20;;;16.60;70.90;;;;;;5025373;28;20465;-46
2022/09/24 12:06:20;;;;;;;8.13;7.33;;;16.60;70.00;;;;;;5029034;28;20458;-45
2022/09/24 12:08:56;;;;;;;10.60;7.93;;;16.60;69.90;;;;;;5052986;28;21314;-45
2022/09/24 12:11:40;;;;;;;7.90;7.17;;;16.60;69.50;;;;;;5024835;28;20473;-45
2022/09/24 12:14:19;;;;;;;8.93;7.97;;;16.70;69.70;;;;;;5051148;28;20490;-45
2022/09/24 12:16:50;;;;;;;8.50;7.50;;;16.70;69.30;;;;;;5050811;28;20966;-46
2022/09/24 12:19:29;;;;;;;8.90;7.17;;;16.80;69.40;;;;;;5029203;28;20471;-46
2022/09/24 12:21:57;;;;;;;7.83;6.90;;;16.80;69.80;;;;;;5027009;28;20462;-46
2022/09/24 12:24:29;;;;;;;13.23;7.83;;;16.80;70.10;;;;;;5023946;28;20466;-46
2022/09/24 12:26:58;;;;;;;9.83;7.50;;;16.90;70.10;;;;;;5015596;28;20466;-46
2022/09/24 12:32:54;;;;;;;8.03;7.20;;;16.90;69.80;;;;;;5047393;28;20458;-46
2022/09/24 12:35:53;;;;;;;8.27;7.47;;;17.00;69.50;;;;;;5042347;28;20470;-46
2022/09/24 12:38:32;;;;;;;9.43;7.20;;;17.00;69.40;;;;;;5047555;28;20455;-46
2022/09/24 12:41:10;;;;;;;7.47;6.87;;;17.00;69.40;;;;;;5046885;28;20959;-46
2022/09/24 12:43:52;;;;;;;9.53;8.53;;;17.00;69.70;;;;;;5046012;28;20486;-46
2022/09/24 12:46:32;;;;;;;11.23;7.73;;;17.00;70.00;;;;;;5047039;28;20492;-46
2022/09/24 12:48:59;;;;;;;9.27;8.37;;;17.00;70.00;;;;;;5038603;28;20458;-46
2022/09/24 12:51:35;;;;;;;14.37;9.30;;;17.10;69.90;;;;;;5028938;28;20458;-46
2022/09/24 12:54:31;;;;;;;13.13;10.10;;;17.10;69.90;;;;;;5020943;28;21089;-46
2022/09/24 12:57:09;;;;;;;10.63;9.00;;;17.10;69.90;;;;;;5032984;28;20569;-46
2022/09/24 13:00:00;;;;;;;10.73;9.63;;;17.10;70.00;;;;;;5043873;28;20458;-46
2022/09/24 13:02:27;;;;;;;11.00;9.50;;;17.10;69.90;;;;;;5050659;28;20497;-46
2022/09/24 13:05:01;;;;;;;10.20;9.20;;;17.10;69.70;;;;;;5030667;28;20497;-46
2022/09/24 13:07:36;;;;;;;13.67;11.60;;;17.10;69.60;;;;;;5043258;28;20470;-45
2022/09/24 13:10:15;;;;;;;12.20;10.10;;;17.10;69.80;;;;;;5035941;28;20539;-46
2022/09/24 13:12:42;;;;;;;13.20;10.37;;;17.10;69.90;;;;;;5043333;28;20458;-46
2022/09/24 13:15:37;;;;;;;12.00;10.80;;;17.10;69.90;;;;;;5047203;28;20489;-46
2022/09/24 13:18:09;;;;;;;11.10;9.90;;;17.10;69.80;;;;;;5042049;28;21222;-46
2022/09/24 13:20:41;;;;;;;11.90;10.10;;;17.10;70.20;;;;;;5041850;28;20493;-45